Time;durP1;ratioP1;P1;durP2;ratioP2;P2;SDS_P1;SDS_P2;PMS_P1;PMS_P2;Temp;Humidity;BMP_temperature;BMP_pressure;BME280_temperature;BME280_humidity;BME280_pressure;Samples;Min_cycle;Max_cycle;Signal;HPM_P1;HPM_P2
2022/08/14 00:02:16;;;;;;;12.60;9.85;;;;;;;16.85;100.00;92618.63;5110905;28;20105;-73
2022/08/14 00:04:43;;;;;;;16.52;9.30;;;;;;;16.91;100.00;92622.75;5110609;28;20040;-74
2022/08/14 00:07:11;;;;;;;14.00;9.68;;;;;;;16.96;100.00;92626.09;5110533;28;20081;-74
2022/08/14 00:09:38;;;;;;;11.38;9.82;;;;;;;17.00;100.00;92626.38;5110632;28;20487;-74
2022/08/14 00:12:06;;;;;;;12.02;10.15;;;;;;;17.03;100.00;92612.88;5110733;28;20092;-74
2022/08/14 00:14:33;;;;;;;12.13;9.52;;;;;;;17.07;100.00;92618.31;5110529;28;20043;-74
2022/08/14 00:17:01;;;;;;;12.68;9.68;;;;;;;17.13;100.00;92619.09;5110746;28;20048;-73
2022/08/14 00:19:28;;;;;;;11.88;9.68;;;;;;;17.16;100.00;92614.16;5110386;28;20138;-73
2022/08/14 00:21:55;;;;;;;11.38;9.75;;;;;;;17.22;100.00;92623.47;5110375;28;20043;-73
2022/08/14 00:24:23;;;;;;;12.88;9.55;;;;;;;17.22;100.00;92620.88;5110424;28;20043;-73
2022/08/14 00:26:50;;;;;;;13.70;9.95;;;;;;;17.14;100.00;92615.44;5110265;28;20556;-73
2022/08/14 00:29:17;;;;;;;12.95;10.65;;;;;;;17.12;100.00;92613.09;5110464;28;20138;-73
2022/08/14 00:31:46;;;;;;;12.75;10.07;;;;;;;17.08;100.00;92596.53;5099506;28;20048;-73
2022/08/14 00:34:14;;;;;;;13.70;10.50;;;;;;;17.02;100.00;92598.34;5089719;28;20044;-73
2022/08/14 00:36:41;;;;;;;11.40;9.20;;;;;;;17.07;100.00;92613.13;5089434;28;20097;-73
2022/08/14 00:39:08;;;;;;;11.23;9.65;;;;;;;16.99;100.00;92605.88;5089619;28;20040;-73
2022/08/14 00:41:35;;;;;;;12.65;10.10;;;;;;;17.06;100.00;92611.56;5089711;28;20070;-73
2022/08/14 00:44:02;;;;;;;13.15;9.70;;;;;;;17.02;100.00;92606.13;5098314;28;20540;-72
2022/08/14 00:46:29;;;;;;;12.50;9.48;;;;;;;17.02;100.00;92605.31;5110082;28;20035;-73
2022/08/14 00:48:56;;;;;;;13.43;10.00;;;;;;;17.01;100.00;92596.00;5109895;28;20051;-74
2022/08/14 00:51:28;;;;;;;12.70;10.15;;;;;;;17.01;100.00;92590.81;5109848;28;20271;-73
2022/08/14 00:53:55;;;;;;;12.13;8.63;;;;;;;17.00;100.00;92592.63;5109711;28;20556;-74
2022/08/14 00:56:22;;;;;;;12.70;9.73;;;;;;;16.99;100.00;92591.06;5109550;28;20059;-74
2022/08/14 00:58:48;;;;;;;11.13;9.30;;;;;;;16.99;100.00;92590.31;5109855;28;20101;-74
2022/08/14 01:01:17;;;;;;;12.07;9.30;;;;;;;16.55;100.00;92515.47;5109864;28;20059;-74
2022/08/14 01:03:44;;;;;;;15.85;9.82;;;;;;;17.07;100.00;92582.00;5109542;28;20252;-74
2022/08/14 01:06:15;;;;;;;12.10;9.30;;;;;;;17.08;100.00;92589.50;5109475;28;20068;-74
2022/08/14 01:08:44;;;;;;;12.68;9.13;;;;;;;17.05;100.00;92582.28;5109749;28;20136;-74
2022/08/14 01:11:14;;;;;;;12.88;10.10;;;;;;;17.07;100.00;92576.81;5109267;28;20043;-74
2022/08/14 01:13:46;;;;;;;11.95;9.48;;;;;;;17.03;100.00;92579.16;5109615;28;20059;-74
2022/08/14 01:16:17;;;;;;;14.13;10.38;;;;;;;17.04;100.00;92583.28;5109467;28;20503;-74
2022/08/14 01:21:33;;;;;;;13.40;10.00;;;;;;;17.05;100.00;92579.69;5109209;28;20169;-74
2022/08/14 01:24:01;;;;;;;16.80;10.02;;;;;;;17.02;100.00;92572.38;5109455;28;20039;-74
2022/08/14 01:26:29;;;;;;;12.18;10.32;;;;;;;17.02;100.00;92572.38;5109411;28;20047;-74
2022/08/14 01:28:58;;;;;;;14.07;9.88;;;;;;;17.03;100.00;92579.16;5109037;28;20507;-74
2022/08/14 01:31:26;;;;;;;11.60;9.80;;;;;;;16.94;100.00;92570.34;5108810;28;20043;-74
2022/08/14 01:33:56;;;;;;;12.05;9.27;;;;;;;17.08;100.00;92586.16;5109101;28;20051;-74
2022/08/14 01:36:25;;;;;;;11.68;9.48;;;;;;;17.11;100.00;92579.66;5108683;28;20544;-74
2022/08/14 01:38:55;;;;;;;11.95;9.02;;;;;;;17.09;100.00;92575.50;5108842;28;20522;-74
2022/08/14 01:41:24;;;;;;;13.70;10.48;;;;;;;17.06;100.00;92573.44;5109156;28;20419;-74
2022/08/14 01:43:54;;;;;;;12.43;9.70;;;;;;;17.01;100.00;92572.66;5109055;28;20047;-73
2022/08/14 01:46:24;;;;;;;11.40;9.25;;;;;;;16.94;100.00;92576.31;5108905;28;20054;-74
2022/08/14 01:48:52;;;;;;;13.98;9.57;;;;;;;16.87;100.00;92573.22;5108920;28;20097;-74
2022/08/14 01:51:21;;;;;;;11.45;8.75;;;;;;;16.73;100.00;92567.03;5108840;28;20582;-74
2022/08/14 01:53:51;;;;;;;12.60;9.55;;;;;;;16.68;100.00;92566.00;5109074;28;20051;-74
2022/08/14 01:56:19;;;;;;;11.60;9.35;;;;;;;16.65;100.00;92561.34;5108763;28;20043;-76
2022/08/14 01:58:48;;;;;;;12.80;9.85;;;;;;;16.64;100.00;92553.81;5108948;28;20092;-75
2022/08/14 02:01:16;;;;;;;11.20;9.25;;;;;;;16.60;100.00;92552.78;5108762;28;20054;-74
2022/08/14 02:03:43;;;;;;;12.98;10.45;;;;;;;16.46;100.00;92540.38;5108487;28;20047;-74
2022/08/14 02:06:11;;;;;;;12.05;10.35;;;;;;;16.36;100.00;92546.38;5108890;28;20112;-74
2022/08/14 02:08:39;;;;;;;13.25;10.48;;;;;;;16.39;100.00;92548.41;5108925;28;20044;-74
2022/08/14 02:11:17;;;;;;;12.57;9.23;;;;;;;16.40;100.00;92551.81;5109354;28;20119;-74
2022/08/14 02:13:47;;;;;;;13.02;10.23;;;;;;;16.35;100.00;92544.81;5108951;28;20134;-74
2022/08/14 02:16:16;;;;;;;13.27;10.13;;;;;;;16.28;100.00;92547.66;5108822;28;20044;-74
2022/08/14 02:18:44;;;;;;;13.85;10.23;;;;;;;16.36;100.00;92554.16;5108797;28;20039;-74
2022/08/14 02:21:13;;;;;;;14.30;10.55;;;;;;;16.40;100.00;92560.34;5108388;28;20063;-74
2022/08/14 02:23:40;;;;;;;12.68;9.80;;;;;;;16.38;100.00;92546.88;5108855;28;20043;-74
2022/08/14 02:26:16;;;;;;;13.20;10.20;;;;;;;16.37;100.00;92547.91;5108633;28;20560;-75
2022/08/14 02:28:42;;;;;;;;;;;;;;;16.45;100.00;92559.56;5109038;28;20096;-76
2022/08/14 02:31:11;;;;;;;12.60;10.73;;;;;;;16.38;100.00;92554.66;5108733;28;19920;-76
2022/08/14 02:33:40;;;;;;;17.27;10.00;;;;;;;16.35;100.00;92550.00;5090169;28;20583;-76
2022/08/14 02:36:07;;;;;;;14.05;10.55;;;;;;;16.38;100.00;92551.31;5088439;28;20071;-76
2022/08/14 02:38:34;;;;;;;14.57;9.85;;;;;;;16.39;100.00;92563.97;5088375;28;20040;-76
2022/08/14 02:41:02;;;;;;;15.32;11.13;;;;;;;16.36;100.00;92554.16;5087993;28;20512;-76
2022/08/14 02:43:31;;;;;;;14.40;10.13;;;;;;;16.46;100.00;92555.94;5092104;28;20051;-76
2022/08/14 02:45:57;;;;;;;12.52;9.32;;;;;;;16.44;100.00;92558.03;5108346;28;20521;-76
2022/08/14 02:48:34;;;;;;;14.38;10.73;;;;;;;16.45;100.00;92564.75;5108363;28;20138;-76
2022/08/14 02:51:03;;;;;;;16.30;10.52;;;;;;;16.46;100.00;92555.16;5108112;28;20129;-76
2022/08/14 02:53:31;;;;;;;42.15;17.23;;;;;;;16.52;100.00;92567.84;5108481;28;20055;-76
2022/08/14 02:55:58;;;;;;;39.80;17.40;;;;;;;16.54;100.00;92568.34;5108595;28;20532;-76
2022/08/14 02:58:25;;;;;;;15.13;10.40;;;;;;;16.59;100.00;92559.00;5108080;28;20530;-76
2022/08/14 03:00:53;;;;;;;19.30;12.18;;;;;;;16.56;100.00;92558.50;5108230;28;20043;-77
2022/08/14 03:03:22;;;;;;;22.50;11.95;;;;;;;16.58;100.00;92558.25;5108391;28;20098;-76
2022/08/14 03:05:51;;;;;;;41.80;20.10;;;;;;;16.43;100.00;92528.72;5108562;28;20070;-76
2022/08/14 03:08:18;;;;;;;30.55;14.68;;;;;;;16.61;100.00;92554.38;5110433;28;20096;-75
2022/08/14 03:10:45;;;;;;;58.60;22.40;;;;;;;16.49;100.00;92542.47;5111774;28;20134;-75
2022/08/14 03:13:12;;;;;;;19.30;12.10;;;;;;;16.64;100.00;92569.38;5111653;28;20551;-75
2022/08/14 03:15:40;;;;;;;16.48;10.00;;;;;;;16.62;100.00;92567.03;5111713;28;20084;-74
2022/08/14 03:18:11;;;;;;;20.25;11.88;;;;;;;16.56;100.00;92549.94;5111986;28;20039;-75
2022/08/14 03:20:37;;;;;;;17.67;10.65;;;;;;;16.69;100.00;92561.59;5111872;28;20043;-75
2022/08/14 03:23:06;;;;;;;12.65;9.77;;;;;;;16.65;100.00;92566.53;5111395;28;20503;-74
2022/08/14 03:25:34;;;;;;;12.15;9.15;;;;;;;16.69;100.00;92564.19;5111459;28;20039;-75
2022/08/14 03:28:02;;;;;;;12.15;9.93;;;;;;;16.59;100.00;92556.44;5111409;28;20048;-75
2022/08/14 03:30:31;;;;;;;13.27;9.45;;;;;;;16.63;100.00;92560.06;5111017;28;20406;-75
2022/08/14 03:32:58;;;;;;;12.02;9.77;;;;;;;16.75;100.00;92573.50;5091244;28;20044;-75
2022/08/14 03:35:25;;;;;;;11.77;9.15;;;;;;;16.76;100.00;92579.47;5090785;28;20051;-75
2022/08/14 03:37:52;;;;;;;12.77;10.30;;;;;;;16.77;100.00;92581.03;5090794;28;20044;-75
2022/08/14 03:40:21;;;;;;;11.88;9.20;;;;;;;16.80;100.00;92575.31;5090915;28;20048;-75
2022/08/14 03:42:48;;;;;;;13.05;9.90;;;;;;;16.88;100.00;92574.75;5090685;28;20052;-75
2022/08/14 03:45:15;;;;;;;12.43;9.57;;;;;;;16.85;100.00;92569.34;5109758;28;20052;-75
2022/08/14 03:47:42;;;;;;;12.80;9.95;;;;;;;16.88;100.00;92574.75;5109871;28;20050;-75
2022/08/14 03:50:10;;;;;;;11.60;9.57;;;;;;;16.90;100.00;92575.28;5091197;28;20048;-75
2022/08/14 03:52:38;;;;;;;11.32;8.80;;;;;;;16.92;100.00;92575.81;5090553;28;20044;-75
2022/08/14 03:55:06;;;;;;;10.57;8.35;;;;;;;16.88;100.00;92579.94;5090546;28;20116;-75
2022/08/14 03:57:35;;;;;;;11.60;8.73;;;;;;;16.91;100.00;92576.84;5090727;28;20041;-75
2022/08/14 04:00:05;;;;;;;9.82;8.77;;;;;;;16.79;100.00;92560.78;5090292;28;20089;-75
2022/08/14 04:02:32;;;;;;;10.02;8.88;;;;;;;16.94;100.00;92581.50;5090551;28;20044;-75
2022/08/14 04:05:00;;;;;;;11.48;8.93;;;;;;;16.93;100.00;92589.53;5090863;28;20130;-74
2022/08/14 04:07:27;;;;;;;9.88;8.43;;;;;;;16.92;100.00;92590.56;5090940;28;20135;-75
2022/08/14 04:09:54;;;;;;;12.65;9.02;;;;;;;16.89;100.00;92581.50;5090838;28;20097;-75
2022/08/14 04:12:20;;;;;;;12.35;9.38;;;;;;;16.91;100.00;92587.22;5090959;28;20084;-75
2022/08/14 04:14:51;;;;;;;10.32;9.15;;;;;;;16.81;100.00;92567.25;5090757;28;20101;-74
2022/08/14 04:17:18;;;;;;;11.75;9.63;;;;;;;16.93;100.00;92581.75;5090424;28;20044;-74
2022/08/14 04:19:46;;;;;;;11.55;9.95;;;;;;;16.95;100.00;92584.88;5090460;28;20605;-74
2022/08/14 04:22:13;;;;;;;13.25;10.93;;;;;;;16.95;100.00;92588.22;5097449;28;20043;-75
2022/08/14 04:24:40;;;;;;;15.98;10.52;;;;;;;16.97;100.00;92580.19;5106295;28;20047;-74
2022/08/14 04:27:08;;;;;;;17.73;11.02;;;;;;;16.94;100.00;92573.72;5106904;28;20040;-75
2022/08/14 04:29:37;;;;;;;13.30;10.90;;;;;;;17.02;100.00;92585.34;5101481;28;20141;-76
2022/08/14 04:32:07;;;;;;;15.00;10.80;;;;;;;16.89;100.00;92565.94;5100925;28;20036;-75
2022/08/14 04:34:35;;;;;;;15.60;10.38;;;;;;;17.07;100.00;92594.97;5100244;28;20059;-75
2022/08/14 04:45:14;;;;;;;15.23;11.93;;;;;;;16.87;100.00;92568.03;5098218;28;20089;-75
2022/08/14 04:50:28;;;;;;;14.25;11.60;;;;;;;17.08;100.00;92605.09;5098896;28;20586;-75
2022/08/14 04:52:55;;;;;;;14.95;11.93;;;;;;;17.07;100.00;92594.97;5099330;28;20558;-75
2022/08/14 04:55:23;;;;;;;15.38;12.35;;;;;;;17.12;100.00;92602.72;5100653;28;20267;-75
2022/08/14 04:57:49;;;;;;;16.05;11.20;;;;;;;17.12;100.00;92599.38;5108044;28;20049;-76
2022/08/14 05:00:16;;;;;;;13.00;11.13;;;;;;;17.11;100.00;92596.00;5098239;28;20048;-76
2022/08/14 05:02:44;;;;;;;14.85;12.60;;;;;;;17.11;100.00;92593.41;5089775;28;20454;-76
2022/08/14 05:05:11;;;;;;;14.98;11.73;;;;;;;17.08;100.00;92594.69;5089828;28;20044;-76
2022/08/14 05:07:41;;;;;;;19.20;12.82;;;;;;;17.13;100.00;92591.31;5092837;28;20036;-76
2022/08/14 05:10:09;;;;;;;17.50;12.05;;;;;;;17.05;100.00;92586.69;5101545;28;20582;-76
2022/08/14 05:12:39;;;;;;;18.85;13.45;;;;;;;17.17;100.00;92597.53;5095201;28;20040;-76
2022/08/14 05:15:07;;;;;;;16.23;13.13;;;;;;;17.12;100.00;92589.75;5099131;28;20491;-77
2022/08/14 05:17:34;;;;;;;18.27;13.45;;;;;;;17.17;100.00;92591.56;5099102;28;20048;-77
2022/08/14 05:20:02;;;;;;;16.70;12.07;;;;;;;17.20;100.00;92593.63;5095039;28;20044;-76
2022/08/14 05:22:29;;;;;;;15.93;12.48;;;;;;;17.19;100.00;92586.88;5098921;28;20996;-78
2022/08/14 05:24:56;;;;;;;16.83;12.43;;;;;;;17.21;100.00;92593.38;5093806;28;20120;-78
2022/08/14 05:27:23;;;;;;;19.40;14.15;;;;;;;17.20;100.00;92589.22;5089864;28;20051;-76
2022/08/14 05:29:50;;;;;;;17.95;13.07;;;;;;;17.14;100.00;92569.53;5095420;28;20044;-76
2022/08/14 05:32:17;;;;;;;18.23;13.15;;;;;;;17.31;100.00;92584.00;5093916;28;20052;-76
2022/08/14 05:34:44;;;;;;;17.30;13.75;;;;;;;17.33;100.00;92582.69;5089019;28;20055;-76
2022/08/14 05:37:12;;;;;;;17.02;13.55;;;;;;;17.35;100.00;92583.19;5089520;28;20044;-76
2022/08/14 05:39:39;;;;;;;18.38;12.77;;;;;;;17.42;100.00;92582.91;5089317;28;20044;-76
2022/08/14 05:42:06;;;;;;;15.88;12.40;;;;;;;17.46;100.00;92594.28;5089213;28;20044;-76
2022/08/14 05:44:33;;;;;;;15.50;12.82;;;;;;;17.47;100.00;92584.69;5102641;28;20040;-76
2022/08/14 05:47:00;;;;;;;16.17;12.60;;;;;;;17.56;100.00;92592.69;5090905;28;20131;-76
2022/08/14 05:49:28;;;;;;;15.23;11.98;;;;;;;17.55;100.00;92597.09;5102177;28;20497;-76
2022/08/14 05:51:54;;;;;;;16.98;12.35;;;;;;;17.64;100.00;92605.13;5089522;28;20130;-78
2022/08/14 05:54:22;;;;;;;14.38;11.15;;;;;;;17.63;100.00;92619.91;5093565;28;20097;-78
2022/08/14 05:56:49;;;;;;;14.68;11.35;;;;;;;17.67;100.00;92622.00;5107635;28;20089;-79
2022/08/14 05:59:16;;;;;;;14.05;11.52;;;;;;;17.62;100.00;92618.38;5105022;28;20047;-78
2022/08/14 06:01:43;;;;;;;15.10;12.02;;;;;;;17.66;100.00;92618.59;5099521;28;20048;-77
2022/08/14 06:04:09;;;;;;;14.45;11.00;;;;;;;17.62;100.00;92607.97;5088933;28;20457;-76
2022/08/14 06:06:36;;;;;;;16.25;11.48;;;;;;;17.62;100.00;92604.59;5088774;28;20571;-75
2022/08/14 06:09:03;;;;;;;15.27;11.82;;;;;;;17.59;100.00;92600.72;5088676;28;20048;-77
2022/08/14 06:11:31;;;;;;;15.48;11.48;;;;;;;17.62;100.00;92596.81;5088798;28;20519;-76
2022/08/14 06:13:58;;;;;;;12.93;8.68;;;;;;;17.57;100.00;92600.22;5097428;28;20044;-77
2022/08/14 06:16:25;;;;;;;9.82;7.10;;;;;;;17.59;100.00;92602.53;5088776;28;20130;-77
2022/08/14 06:18:52;;;;;;;7.45;5.28;;;;;;;17.57;100.00;92600.22;5089150;28;20052;-78
2022/08/14 06:21:19;;;;;;;9.15;5.65;;;;;;;17.51;100.00;92601.28;5100826;28;20053;-77
2022/08/14 06:23:46;;;;;;;5.88;4.40;;;;;;;17.42;100.00;92595.88;5101802;28;20553;-77
2022/08/14 06:26:12;;;;;;;6.50;4.93;;;;;;;17.51;100.00;92609.06;5097946;28;20397;-78
2022/08/14 06:28:40;;;;;;;6.97;5.10;;;;;;;17.44;100.00;92595.59;5089568;28;20533;-77
2022/08/14 06:31:07;;;;;;;7.45;4.70;;;;;;;17.50;100.00;92602.34;5094064;28;20048;-78
2022/08/14 06:33:34;;;;;;;7.13;4.40;;;;;;;17.55;100.00;92601.53;5088887;28;20416;-77
2022/08/14 06:36:01;;;;;;;6.38;4.88;;;;;;;17.47;100.00;92598.44;5091069;28;20491;-80
2022/08/14 06:38:27;;;;;;;7.40;5.47;;;;;;;17.42;100.00;92605.47;5099920;28;20043;-80
2022/08/14 06:40:54;;;;;;;8.10;5.75;;;;;;;17.47;100.00;92597.66;5097610;28;20040;-81
2022/08/14 06:43:22;;;;;;;8.68;6.20;;;;;;;17.32;100.00;92578.50;5102860;28;20047;-81
2022/08/14 06:45:53;;;;;;;8.55;5.90;;;;;;;17.39;100.00;92593.03;5103326;28;20039;-82
2022/08/14 06:48:22;;;;;;;7.45;5.15;;;;;;;17.44;100.00;92593.78;5101852;28;20044;-82
2022/08/14 06:50:51;;;;;;;5.03;3.92;;;;;;;17.48;100.00;92605.19;5101017;28;20040;-80
2022/08/14 06:53:18;;;;;;;4.72;3.58;;;;;;;17.49;100.00;92606.75;5102073;28;20039;-80
2022/08/14 06:55:46;;;;;;;5.03;3.50;;;;;;;17.49;100.00;92604.16;5102399;28;20051;-80
2022/08/14 06:58:15;;;;;;;4.60;3.40;;;;;;;17.42;100.00;92595.88;5103337;28;20116;-81
2022/08/14 07:05:44;;;;;;;4.72;3.17;;;;;;;17.44;100.00;92603.38;5102794;28;20535;-80
2022/08/14 07:06:18;;;;;;;4.65;2.88;;;;;;;17.35;100.00;92597.97;5075882;28;20231;-81
2022/08/14 07:08:45;;;;;;;5.57;3.10;;;;;;;17.38;100.00;92618.22;5092509;28;20105;-82
2022/08/14 07:11:12;;;;;;;5.82;2.83;;;;;;;17.27;100.00;92611.50;5092277;28;20048;-81
2022/08/14 07:13:39;;;;;;;4.25;2.70;;;;;;;17.23;100.00;92606.06;5092743;28;20105;-81
2022/08/14 07:16:07;;;;;;;3.13;2.22;;;;;;;17.30;100.00;92608.38;5098903;28;20456;-78
2022/08/14 07:18:36;;;;;;;2.70;1.90;;;;;;;17.16;100.00;92584.81;5092339;28;20101;-83
2022/08/14 07:21:06;;;;;;;3.80;2.13;;;;;;;17.36;100.00;92599.53;5092347;28;20121;-81
2022/08/14 07:23:33;;;;;;;3.15;2.55;;;;;;;17.32;100.00;92590.72;5095403;28;20039;-80
2022/08/14 07:26:02;;;;;;;3.22;1.83;;;;;;;17.47;100.00;92605.44;5102858;28;20466;-76
2022/08/14 07:28:30;;;;;;;4.28;1.92;;;;;;;17.54;100.00;92608.53;5091665;28;20108;-81
2022/08/14 07:30:58;;;;;;;2.83;1.80;;;;;;;17.62;100.00;92612.38;5098292;28;20044;-81
2022/08/14 07:33:27;;;;;;;3.15;1.77;;;;;;;17.68;100.00;92608.72;5091534;28;20044;-81
2022/08/14 07:35:57;;;;;;;2.40;1.42;;;;;;;17.72;100.00;92606.34;5091519;28;20052;-81
2022/08/14 07:38:26;;;;;;;3.83;1.90;;;;;;;17.77;100.00;92607.09;5091226;28;20039;-81
2022/08/14 07:40:53;;;;;;;3.50;1.83;;;;;;;17.82;100.00;92610.72;5091685;28;20094;-81
2022/08/14 07:43:21;;;;;;;2.95;2.00;;;;;;;17.92;100.00;92608.06;5094610;28;20043;-81
2022/08/14 07:45:48;;;;;;;5.00;2.20;;;;;;;17.95;100.00;92604.16;5102367;28;20051;-81
2022/08/14 07:48:15;;;;;;;3.55;1.70;;;;;;;18.06;100.00;92607.44;5091105;28;20052;-81
2022/08/14 07:50:42;;;;;;;5.72;2.10;;;;;;;18.12;100.00;92616.78;5091100;28;20056;-81
2022/08/14 07:53:11;;;;;;;8.13;2.30;;;;;;;18.16;100.00;92599.63;5090552;28;20093;-81
2022/08/14 07:55:37;;;;;;;3.50;1.98;;;;;;;18.31;100.00;92609.09;5091407;28;20427;-80
2022/08/14 07:58:04;;;;;;;3.40;1.70;;;;;;;18.41;100.00;92616.03;5090752;28;20073;-81
2022/08/14 08:00:32;;;;;;;3.22;1.88;;;;;;;18.51;100.00;92615.19;5091236;28;20093;-81
2022/08/14 08:02:59;;;;;;;3.58;2.05;;;;;;;18.61;100.00;92616.94;5091315;28;20052;-81
2022/08/14 08:05:26;;;;;;;2.60;1.42;;;;;;;18.63;100.00;92610.41;5090730;28;20052;-80
2022/08/14 08:07:54;;;;;;;2.67;1.67;;;;;;;18.63;100.00;92604.41;5089815;28;20496;-81
2022/08/14 08:10:33;;;;;;;3.15;1.90;;;;;;;18.85;100.00;92619.56;5088465;28;20101;-79
2022/08/14 08:13:01;;;;;;;4.20;1.70;;;;;;;18.75;100.00;92597.00;5090797;28;20093;-78
2022/08/14 08:15:31;;;;;;;2.78;2.00;;;;;;;18.99;100.00;92619.69;5100906;28;20061;-78
2022/08/14 08:17:59;;;;;;;3.83;1.92;;;;;;;19.05;100.00;92623.03;5090742;28;20048;-79
2022/08/14 08:20:27;;;;;;;3.20;1.80;;;;;;;19.12;100.00;92623.47;5090414;28;20131;-79
2022/08/14 08:22:57;;;;;;;3.63;1.90;;;;;;;19.19;100.00;92613.50;5090952;28;20142;-78
2022/08/14 08:25:26;;;;;;;3.75;2.30;;;;;;;19.31;100.00;92613.09;5090541;28;20047;-78
2022/08/14 08:28:01;;;;;;;3.03;1.90;;;;;;;19.37;100.00;92606.00;5090888;28;20105;-79
2022/08/14 08:30:29;;;;;;;3.03;2.00;;;;;;;19.46;100.00;92598.34;5100655;28;20138;-79
2022/08/14 08:32:58;;;;;;;2.90;1.88;;;;;;;19.49;100.00;92603.00;5090480;28;20047;-79
2022/08/14 08:35:27;;;;;;;2.85;1.80;;;;;;;18.72;100.00;92542.16;5090393;28;20086;-79
2022/08/14 08:38:00;;;;;;;5.15;1.92;;;;;;;19.31;100.00;92601.91;5090304;28;20047;-79
2022/08/14 08:40:34;;;;;;;3.13;1.73;;;;;;;19.49;100.00;92610.81;5090275;28;20048;-80
2022/08/14 08:43:05;;;;;;;2.58;1.52;;;;;;;19.62;100.00;92602.31;5093243;28;20074;-81
2022/08/14 08:45:34;;;;;;;2.97;1.48;;;;;;;19.45;100.00;92563.72;5099613;28;20115;-82
2022/08/14 08:48:04;;;;;;;2.70;1.50;;;;;;;19.81;100.00;92611.94;5100950;28;20444;-81
2022/08/14 08:50:35;;;;;;;3.75;1.70;;;;;;;19.93;100.00;92608.94;5093511;28;20052;-80
2022/08/14 08:53:04;;;;;;;3.55;1.80;;;;;;;19.98;100.00;92611.50;5091227;28;20740;-80
2022/08/14 08:55:34;;;;;;;3.17;1.50;;;;;;;20.05;100.00;92605.94;5090109;28;20051;-81
2022/08/14 08:58:04;;;;;;;1.80;1.10;;;;;;;20.14;100.00;92606.81;5089784;28;20094;-80
2022/08/14 09:00:33;;;;;;;1.80;0.90;;;;;;;20.31;100.00;92612.59;5089669;28;20048;-80
2022/08/14 09:03:04;;;;;;;2.22;0.90;;;;;;;20.37;100.00;92611.44;5089652;28;20488;-80
2022/08/14 09:05:32;;;;;;;1.80;1.08;;;;;;;20.35;100.00;92598.69;5089120;28;20393;-79
2022/08/14 09:08:17;;;;;;;1.52;0.82;;;;;;;20.35;100.00;92603.91;5089641;28;20492;-80
2022/08/14 09:10:46;;;;;;;2.73;0.87;;;;;;;20.26;100.00;92609.00;5089734;28;20105;-79
2022/08/14 09:13:14;;;;;;;1.38;0.77;;;;;;;20.51;100.00;92601.06;5089960;28;20040;-79
2022/08/14 09:15:44;;;;;;;1.52;0.88;;;;;;;20.20;100.00;92586.66;5091676;28;20048;-79
2022/08/14 09:18:13;;;;;;;1.85;1.05;;;;;;;20.34;100.00;92588.53;5089728;28;20083;-79
2022/08/14 09:20:41;;;;;;;2.85;1.27;;;;;;;20.48;100.00;92591.19;5089730;28;20123;-80
2022/08/14 09:23:09;;;;;;;5.30;1.77;;;;;;;20.69;100.00;92589.00;5089295;28;20058;-78
2022/08/14 09:25:37;;;;;;;1.42;0.82;;;;;;;20.65;100.00;92588.03;5089775;28;20110;-79
2022/08/14 09:28:06;;;;;;;1.90;1.17;;;;;;;20.60;100.00;92578.44;5089134;28;20512;-78
2022/08/14 09:30:35;;;;;;;1.60;0.90;;;;;;;20.64;100.00;92553.31;5091561;28;20052;-79
2022/08/14 09:33:46;;;;;;;1.50;0.70;;;;;;;20.85;100.00;92560.81;5089603;28;20050;-78
2022/08/14 09:36:34;;;;;;;2.72;1.42;;;;;;;21.18;100.00;92576.38;5089144;28;20052;-78
2022/08/14 09:39:08;;;;;;;1.95;1.10;;;;;;;21.53;100.00;92575.97;5079449;28;20109;-77
2022/08/14 09:41:48;;;;;;;2.38;1.40;;;;;;;21.83;100.00;92565.94;5089112;28;20075;-78
2022/08/14 09:44:28;;;;;;;2.08;1.00;;;;;;;22.13;100.00;92574.13;5089376;28;20062;-78
2022/08/14 09:46:55;;;;;;;1.52;0.93;;;;;;;22.51;96.50;92583.47;5089308;28;20051;-77
2022/08/14 09:49:31;;;;;;;1.67;1.10;;;;;;;22.63;99.19;92553.38;5089337;28;20300;-78
2022/08/14 09:52:05;;;;;;;2.03;1.20;;;;;;;22.02;94.14;92593.75;5088775;28;20051;-78
2022/08/14 09:54:38;;;;;;;1.88;0.98;;;;;;;21.32;99.01;92568.53;5089133;28;20051;-77
2022/08/14 09:57:09;;;;;;;1.67;1.00;;;;;;;21.74;100.00;92583.38;5089081;28;20071;-77
2022/08/14 09:59:46;;;;;;;1.65;0.90;;;;;;;22.38;100.00;92592.94;5088708;28;20127;-77
2022/08/14 10:02:21;;;;;;;1.63;0.95;;;;;;;22.25;86.88;92596.38;5106344;28;20051;-77
2022/08/14 10:04:59;;;;;;;2.47;1.10;;;;;;;22.74;92.82;92582.66;5108847;28;20118;-77
2022/08/14 10:07:31;;;;;;;1.63;0.95;;;;;;;21.82;84.68;92550.53;5107710;28;20383;-76
2022/08/14 10:09:59;;;;;;;4.20;1.80;;;;;;;22.02;96.17;92575.44;5107642;28;20126;-76
2022/08/14 10:12:29;;;;;;;2.38;1.33;;;;;;;22.54;97.64;92576.88;5108756;28;20146;-76
2022/08/14 10:14:57;;;;;;;2.00;1.13;;;;;;;22.84;97.12;92577.16;5102026;28;20075;-76
2022/08/14 10:17:25;;;;;;;2.83;2.00;;;;;;;23.26;94.69;92578.69;5090899;28;20040;-77
2022/08/14 10:19:52;;;;;;;3.85;1.42;;;;;;;23.80;95.54;92585.59;5092556;28;20047;-77
2022/08/14 10:22:32;;;;;;;3.75;1.80;;;;;;;24.13;90.50;92575.44;5092652;28;20044;-78
2022/08/14 10:24:58;;;;;;;3.13;1.60;;;;;;;24.66;88.75;92585.03;5111981;28;20139;-78
2022/08/14 10:27:26;;;;;;;1.98;1.17;;;;;;;24.69;81.81;92573.91;5093559;28;20126;-78
2022/08/14 10:29:58;;;;;;;3.50;1.42;;;;;;;24.59;81.89;92590.00;5099168;28;20092;-78
2022/08/14 10:32:27;;;;;;;2.28;1.38;;;;;;;24.80;82.67;92576.97;5094224;28;20101;-78
2022/08/14 10:35:05;;;;;;;2.38;1.55;;;;;;;24.67;82.03;92586.59;5092587;28;20060;-77
2022/08/14 10:37:38;;;;;;;6.07;1.67;;;;;;;24.81;80.60;92581.16;5092664;28;20586;-78
2022/08/14 10:40:06;;;;;;;3.35;1.88;;;;;;;24.72;81.72;92549.69;5092338;28;20135;-79
2022/08/14 10:42:38;;;;;;;2.20;1.58;;;;;;;24.69;79.74;92572.06;5092359;28;20097;-78
2022/08/14 10:45:19;;;;;;;2.90;1.52;;;;;;;24.53;83.45;92563.16;5107182;28;20040;-78
2022/08/14 10:47:48;;;;;;;2.38;1.60;;;;;;;24.54;79.56;92568.09;5092397;28;20492;-78
2022/08/14 10:50:17;;;;;;;3.65;1.52;;;;;;;24.63;84.36;92554.94;5091832;28;20052;-78
2022/08/14 10:52:45;;;;;;;5.65;2.30;;;;;;;24.74;83.26;92563.25;5100206;28;20044;-78
2022/08/14 10:55:14;;;;;;;4.90;2.15;;;;;;;24.90;83.13;92566.16;5097291;28;20048;-77
2022/08/14 10:57:52;;;;;;;2.30;1.30;;;;;;;24.74;75.99;92558.00;5097486;28;20051;-79
2022/08/14 11:00:20;;;;;;;2.28;1.40;;;;;;;24.33;76.36;92533.09;5100972;28;20060;-78
2022/08/14 11:03:00;;;;;;;1.70;1.00;;;;;;;24.39;76.15;92542.34;5099806;28;20044;-78
2022/08/14 11:05:40;;;;;;;2.10;1.20;;;;;;;24.23;74.56;92542.06;5093176;28;20048;-78
2022/08/14 11:08:07;;;;;;;1.80;1.08;;;;;;;23.96;76.30;92522.94;5092769;28;20117;-78
2022/08/14 11:10:44;;;;;;;2.83;1.40;;;;;;;24.01;74.51;92517.53;5091559;28;20044;-78
2022/08/14 11:13:17;;;;;;;1.63;1.00;;;;;;;24.25;77.11;92516.31;5090100;28;20040;-78
2022/08/14 11:15:45;;;;;;;2.42;1.45;;;;;;;24.55;78.15;92518.97;5093703;28;20056;-78
2022/08/14 11:18:13;;;;;;;2.58;1.25;;;;;;;24.84;76.46;92522.75;5091787;28;20046;-78
2022/08/14 11:20:48;;;;;;;1.98;1.20;;;;;;;25.16;75.88;92511.94;5092154;28;20121;-78
2022/08/14 11:23:17;;;;;;;1.77;1.13;;;;;;;25.36;72.28;92520.91;5091659;28;20052;-78
2022/08/14 11:25:45;;;;;;;2.55;1.30;;;;;;;25.72;74.70;92519.63;5091855;28;20052;-78
2022/08/14 11:28:13;;;;;;;2.63;1.38;;;;;;;26.02;72.77;92518.75;5090529;28;20139;-78
2022/08/14 11:30:43;;;;;;;2.70;1.52;;;;;;;26.39;72.19;92507.59;5095205;28;20131;-79
2022/08/14 11:33:10;;;;;;;3.55;1.77;;;;;;;26.39;66.83;92515.47;5091520;28;20420;-79
2022/08/14 11:35:40;;;;;;;2.90;2.03;;;;;;;26.54;66.01;92514.06;5091499;28;20048;-78
2022/08/14 11:38:07;;;;;;;2.60;2.00;;;;;;;26.59;66.05;92520.97;5091482;28;20052;-78
2022/08/14 11:40:35;;;;;;;2.55;1.80;;;;;;;26.30;61.18;92518.22;5091712;28;20047;-78
2022/08/14 11:43:04;;;;;;;2.30;1.48;;;;;;;25.81;63.01;92502.97;5092326;28;20048;-77
2022/08/14 11:45:33;;;;;;;4.88;2.28;;;;;;;25.89;71.17;92510.78;5111815;28;20040;-77